Time;durP1;ratioP1;P1;durP2;ratioP2;P2;SDS_P1;SDS_P2;PMS_P1;PMS_P2;Temp;Humidity;BMP_temperature;BMP_pressure;BME280_temperature;BME280_humidity;BME280_pressure;Samples;Min_cycle;Max_cycle;Signal;HPM_P1;HPM_P2
2022/10/25 00:01:02;;;;;;;4.80;2.75;;;;;;;14.65;98.31;99672.78;5115879;28;20032;-67
2022/10/25 00:03:33;;;;;;;4.18;2.85;;;;;;;14.63;98.18;99677.09;5115855;28;20054;-67
2022/10/25 00:06:03;;;;;;;3.55;2.65;;;;;;;14.61;97.92;99677.09;5114860;28;20056;-66
2022/10/25 00:08:32;;;;;;;3.38;2.38;;;;;;;14.60;98.38;99662.56;5115667;28;20043;-67
2022/10/25 00:11:00;;;;;;;7.15;2.97;;;;;;;14.61;98.37;99671.97;5115972;28;20130;-67
2022/10/25 00:13:29;;;;;;;8.85;3.63;;;;;;;14.58;98.24;99672.03;5115890;28;20031;-67
2022/10/25 00:15:58;;;;;;;4.43;2.53;;;;;;;14.57;98.07;99678.03;5115869;28;20108;-66
2022/10/25 00:18:26;;;;;;;10.95;3.33;;;;;;;14.56;98.25;99684.06;5115612;28;20490;-66
2022/10/25 00:20:56;;;;;;;1.92;1.45;;;;;;;14.51;97.78;99691.00;5116040;27;20478;-66
2022/10/25 00:23:25;;;;;;;3.60;2.88;;;;;;;14.49;97.92;99686.75;5114506;28;20505;-66
2022/10/25 00:26:01;;;;;;;2.90;2.70;;;;;;;14.45;98.42;99696.22;5115353;28;20047;-66
2022/10/25 00:28:30;;;;;;;3.08;2.45;;;;;;;14.40;97.89;99703.13;5115677;27;20078;-66
2022/10/25 00:31:01;;;;;;;3.58;2.55;;;;;;;14.38;98.00;99702.31;5115535;28;20043;-66
2022/10/25 00:33:31;;;;;;;3.67;2.22;;;;;;;14.38;97.91;99689.47;5115200;28;20052;-66
2022/10/25 00:36:06;;;;;;;2.05;1.88;;;;;;;14.39;98.53;99691.19;5115495;27;20442;-67
2022/10/25 00:38:35;;;;;;;2.55;2.08;;;;;;;14.35;98.27;99673.28;5115167;28;20051;-66
2022/10/25 00:41:05;;;;;;;2.63;2.00;;;;;;;14.37;98.53;99674.09;5115077;28;20044;-66
2022/10/25 00:43:36;;;;;;;2.15;1.85;;;;;;;14.27;98.38;99681.06;5113871;28;20048;-66
2022/10/25 00:46:11;;;;;;;3.80;3.08;;;;;;;14.21;97.85;99676.03;5114964;28;20088;-67
2022/10/25 00:48:42;;;;;;;3.53;3.22;;;;;;;14.18;98.12;99688.06;5114982;28;20043;-66
2022/10/25 00:51:12;;;;;;;2.45;2.08;;;;;;;14.17;97.85;99688.94;5114903;28;20054;-66
2022/10/25 00:53:42;;;;;;;1.98;1.60;;;;;;;14.13;98.14;99682.16;5114919;28;20062;-66
2022/10/25 00:56:17;;;;;;;3.47;2.63;;;;;;;14.10;98.12;99683.03;5115060;28;20114;-66
2022/10/25 00:58:49;;;;;;;9.50;4.25;;;;;;;14.04;97.89;99693.38;5114387;28;20048;-66
2022/10/25 01:01:19;;;;;;;2.70;2.35;;;;;;;13.93;98.03;99685.00;5113453;28;20043;-65
2022/10/25 01:03:50;;;;;;;8.45;3.38;;;;;;;13.87;97.56;99690.22;5114962;28;20066;-66
2022/10/25 01:06:28;;;;;;;2.58;2.00;;;;;;;13.88;97.87;99679.09;5114564;28;20055;-66
2022/10/25 01:08:57;;;;;;;2.67;1.75;;;;;;;13.89;98.11;99670.53;5114898;28;20058;-66
2022/10/25 01:11:26;;;;;;;2.40;1.92;;;;;;;13.86;97.77;99661.16;5114811;28;20040;-66
2022/10/25 01:13:57;;;;;;;3.42;3.13;;;;;;;13.79;97.81;99648.44;5114769;28;20040;-66
2022/10/25 01:16:32;;;;;;;3.17;2.58;;;;;;;13.82;97.51;99650.97;5114431;28;20498;-65
2022/10/25 01:19:16;;;;;;;2.90;1.63;;;;;;;13.87;97.80;99641.47;5114129;28;20062;-66
2022/10/25 01:21:50;;;;;;;6.50;2.58;;;;;;;13.88;97.59;99635.47;5114305;28;20516;-66
2022/10/25 01:24:53;;;;;;;4.38;2.92;;;;;;;13.90;97.93;99644.00;5114658;28;20093;-66
2022/10/25 01:27:49;;;;;;;4.40;2.13;;;;;;;13.91;97.58;99661.09;5114546;28;20043;-66
2022/10/25 01:30:21;;;;;;;2.63;2.42;;;;;;;13.92;97.68;99667.91;5114509;28;20076;-65
2022/10/25 01:33:05;;;;;;;4.75;2.40;;;;;;;13.96;98.07;99679.84;5113055;28;20043;-66
2022/10/25 01:35:42;;;;;;;7.07;3.10;;;;;;;13.97;97.74;99687.50;5114135;28;20093;-66
2022/10/25 01:38:27;;;;;;;5.60;2.60;;;;;;;14.00;98.29;99691.75;5114201;28;20047;-66
2022/10/25 01:41:07;;;;;;;1.60;1.20;;;;;;;13.99;98.17;99690.91;5114434;28;20444;-66
2022/10/25 01:43:47;;;;;;;5.68;2.72;;;;;;;14.00;97.88;99708.00;5113981;28;20051;-66
2022/10/25 01:46:22;;;;;;;1.45;1.35;;;;;;;14.01;98.12;99707.09;5114040;28;20501;-66
2022/10/25 01:48:59;;;;;;;6.28;3.40;;;;;;;14.06;98.04;99714.75;5114330;28;20456;-66
2022/10/25 01:51:28;;;;;;;2.85;2.53;;;;;;;14.08;98.44;99701.00;5114014;28;20485;-66
2022/10/25 01:53:57;;;;;;;9.85;1.63;;;;;;;14.09;98.38;99713.00;5114299;28;20043;-66
2022/10/25 01:56:30;;;;;;;4.50;1.88;;;;;;;14.09;98.20;99714.69;5114220;28;20263;-65
2022/10/25 01:59:25;;;;;;;3.72;2.33;;;;;;;14.10;98.49;99713.84;5113829;28;20059;-66
2022/10/25 02:02:05;;;;;;;2.55;2.10;;;;;;;14.11;98.74;99695.00;5113808;28;20069;-66
2022/10/25 02:04:50;;;;;;;1.88;1.50;;;;;;;14.12;98.22;99691.56;5114211;28;20043;-66
2022/10/25 02:07:26;;;;;;;1.90;1.67;;;;;;;14.09;98.20;99686.47;5113812;28;20051;-66
2022/10/25 02:10:03;;;;;;;2.72;2.45;;;;;;;14.06;98.20;99686.50;5113874;28;20047;-65
2022/10/25 02:12:47;;;;;;;8.07;4.28;;;;;;;14.05;98.33;99679.69;5114119;28;20138;-65
2022/10/25 02:15:24;;;;;;;1.58;1.48;;;;;;;14.03;98.57;99681.44;5113831;28;20570;-67
2022/10/25 02:17:59;;;;;;;4.20;2.63;;;;;;;14.03;98.72;99679.72;5113723;28;20044;-67
2022/10/25 02:20:34;;;;;;;1.77;1.65;;;;;;;14.05;99.15;99679.69;5113789;28;20054;-67
2022/10/25 02:23:06;;;;;;;2.97;2.13;;;;;;;14.01;98.75;99686.56;5113993;28;20497;-67
2022/10/25 02:25:37;;;;;;;2.15;1.60;;;;;;;14.03;98.94;99692.56;5114042;28;20047;-66
2022/10/25 02:28:13;;;;;;;6.28;2.53;;;;;;;14.02;98.84;99702.84;5113626;28;20081;-66
2022/10/25 02:30:44;;;;;;;4.07;2.70;;;;;;;13.99;98.78;99700.31;5116149;28;20482;-67
2022/10/25 02:33:14;;;;;;;2.90;2.30;;;;;;;13.96;98.99;99705.50;5117624;28;20131;-66
2022/10/25 02:35:44;;;;;;;2.55;2.35;;;;;;;13.92;98.81;99703.81;5117843;28;20047;-66
2022/10/25 02:38:13;;;;;;;2.30;1.75;;;;;;;13.92;98.82;99708.97;5117480;28;20105;-66
2022/10/25 02:40:41;;;;;;;4.53;2.57;;;;;;;13.89;99.10;99703.88;5117740;28;20568;-66
2022/10/25 02:43:11;;;;;;;1.92;1.70;;;;;;;13.85;99.43;99697.09;5117350;28;20113;-66
2022/10/25 02:45:40;;;;;;;6.97;2.75;;;;;;;13.85;98.97;99697.09;5117355;28;20371;-66
2022/10/25 02:48:09;;;;;;;1.63;1.35;;;;;;;13.83;99.23;99698.81;5117210;28;20075;-66
2022/10/25 02:50:37;;;;;;;2.42;1.58;;;;;;;13.72;99.42;99681.03;5117511;28;20405;-66
2022/10/25 02:53:07;;;;;;;6.40;3.47;;;;;;;13.76;98.98;99702.34;5117220;28;20040;-66
2022/10/25 02:55:37;;;;;;;5.00;1.83;;;;;;;13.69;99.35;99695.59;5117786;28;20069;-66
2022/10/25 02:58:06;;;;;;;1.75;1.65;;;;;;;13.62;99.22;99693.97;5117249;27;20058;-66
2022/10/25 03:00:34;;;;;;;3.22;1.95;;;;;;;13.60;98.85;99704.28;5117336;28;20039;-67
2022/10/25 03:03:03;;;;;;;2.13;1.80;;;;;;;13.54;98.92;99703.47;5116927;28;20054;-66
2022/10/25 03:06:22;;;;;;;2.10;1.73;;;;;;;13.50;98.89;99706.97;5117113;28;20113;-66
2022/10/25 03:09:18;;;;;;;1.63;1.15;;;;;;;13.51;98.67;99711.22;5117129;28;20523;-66
2022/10/25 03:11:52;;;;;;;1.52;1.42;;;;;;;13.42;98.62;99707.03;5116876;28;20051;-66
2022/10/25 03:14:21;;;;;;;2.60;2.22;;;;;;;13.32;98.55;99706.31;5117082;28;20047;-66
2022/10/25 03:17:15;;;;;;;1.90;1.52;;;;;;;13.28;98.48;99702.09;5116683;28;20043;-66
2022/10/25 03:20:09;;;;;;;2.75;1.08;;;;;;;13.26;98.61;99710.66;5116839;28;20063;-66
2022/10/25 03:22:41;;;;;;;1.15;0.95;;;;;;;13.24;98.14;99715.81;5116804;28;20071;-66
2022/10/25 03:25:11;;;;;;;3.38;3.08;;;;;;;13.23;98.08;99711.53;5116579;28;20052;-66
2022/10/25 03:27:41;;;;;;;4.63;1.25;;;;;;;13.29;98.23;99726.00;5116859;28;20063;-66
2022/10/25 03:30:12;;;;;;;1.85;1.73;;;;;;;13.25;98.17;99730.31;5116380;28;20040;-67
2022/10/25 03:33:06;;;;;;;2.33;2.13;;;;;;;13.21;98.08;99733.78;5116633;27;20382;-66
2022/10/25 03:35:36;;;;;;;2.03;1.30;;;;;;;13.16;98.00;99719.31;5115435;28;20165;-66
2022/10/25 03:38:04;;;;;;;1.60;1.43;;;;;;;13.12;97.76;99721.06;5116329;28;20052;-66
2022/10/25 03:40:34;;;;;;;5.83;2.43;;;;;;;13.08;97.70;99718.53;5115969;28;20035;-66
2022/10/25 03:43:28;;;;;;;2.15;1.88;;;;;;;13.08;97.79;99721.94;5116117;28;20122;-66
2022/10/25 03:45:59;;;;;;;2.55;1.55;;;;;;;13.08;97.92;99711.69;5116149;28;20047;-66
2022/10/25 03:48:27;;;;;;;1.98;0.85;;;;;;;13.09;97.80;99703.16;5117004;27;20185;-66
2022/10/25 03:50:56;;;;;;;0.65;0.65;;;;;;;13.11;97.66;99695.44;5116026;28;20071;-66
2022/10/25 03:53:32;;;;;;;2.53;1.92;;;;;;;13.12;97.48;99695.44;5116036;28;20059;-66
2022/10/25 03:56:02;;;;;;;2.15;1.17;;;;;;;13.11;97.65;99693.72;5116301;28;20038;-66
2022/10/25 03:58:57;;;;;;;1.20;1.10;;;;;;;13.05;97.76;99691.19;5115641;28;20071;-65
2022/10/25 04:01:25;;;;;;;1.20;1.10;;;;;;;13.06;97.67;99692.06;5116129;28;20042;-66
2022/10/25 04:04:00;;;;;;;1.42;1.33;;;;;;;13.09;97.80;99697.19;5116110;28;20070;-66
2022/10/25 04:06:30;;;;;;;;;;;;;;;13.08;97.50;99698.88;5116208;28;20050;-66
2022/10/25 04:09:03;;;;;;;4.18;3.83;;;;;;;13.10;97.66;99689.47;5115723;28;19926;-66
2022/10/25 04:11:58;;;;;;;1.10;1.02;;;;;;;13.16;97.71;99678.31;5115249;28;20073;-66
2022/10/25 04:14:52;;;;;;;1.77;1.45;;;;;;;13.12;97.67;99680.06;5115663;28;20496;-66
2022/10/25 04:17:23;;;;;;;2.55;2.15;;;;;;;13.10;97.62;99694.59;5115925;28;20071;-66
2022/10/25 04:19:52;;;;;;;1.65;1.55;;;;;;;13.11;97.37;99701.41;5115510;28;20043;-66
2022/10/25 04:22:46;;;;;;;1.75;1.42;;;;;;;13.02;97.30;99696.38;5115347;27;20048;-66
2022/10/25 04:25:14;;;;;;;0.77;0.73;;;;;;;12.98;97.04;99698.97;5115675;28;20040;-66
2022/10/25 04:27:45;;;;;;;2.65;2.20;;;;;;;12.93;97.24;99696.47;5115359;28;20039;-67
2022/10/25 04:30:16;;;;;;;1.52;0.82;;;;;;;12.90;97.33;99706.75;5115618;28;20563;-66
2022/10/25 04:32:44;;;;;;;1.52;1.40;;;;;;;12.85;97.16;99703.38;5115167;28;20039;-66
2022/10/25 04:35:14;;;;;;;;;;;;;;;12.78;97.12;99711.97;5115655;28;20513;-67
2022/10/25 04:37:45;;;;;;;1.52;1.13;;;;;;;12.75;97.07;99717.13;5115300;28;20297;-66
2022/10/25 04:40:14;;;;;;;2.08;1.65;;;;;;;12.73;96.59;99729.09;5115347;28;20401;-67
2022/10/25 04:42:50;;;;;;;2.80;1.75;;;;;;;12.71;96.85;99720.56;5115046;28;20048;-66
2022/10/25 04:45:20;;;;;;;1.52;1.42;;;;;;;12.71;96.92;99726.56;5114974;28;20096;-66
2022/10/25 04:47:48;;;;;;;3.33;2.03;;;;;;;12.72;96.52;99732.50;5115255;28;20039;-66
2022/10/25 04:50:43;;;;;;;4.20;1.67;;;;;;;12.74;96.56;99721.38;5115183;28;20232;-66
2022/10/25 04:53:38;;;;;;;1.17;1.08;;;;;;;12.74;96.50;99723.13;5114496;28;20039;-66
2022/10/25 04:56:13;;;;;;;1.48;1.05;;;;;;;12.74;96.60;99720.56;5115401;27;20043;-66
2022/10/25 04:58:43;;;;;;;1.55;1.33;;;;;;;12.75;96.69;99717.97;5114460;28;20478;-66
2022/10/25 05:01:17;;;;;;;3.75;1.73;;;;;;;12.79;96.81;99726.47;5115361;28;20507;-66
2022/10/25 05:04:11;;;;;;;3.97;2.35;;;;;;;12.82;96.88;99723.88;5114709;28;20035;-66
2022/10/25 05:06:44;;;;;;;3.00;1.95;;;;;;;12.80;96.69;99710.25;5114902;28;20043;-66
2022/10/25 05:09:13;;;;;;;1.52;1.25;;;;;;;12.81;96.79;99722.19;5114501;28;20044;-67
2022/10/25 05:12:31;;;;;;;2.60;2.10;;;;;;;12.83;96.82;99730.72;5114970;28;20046;-66
2022/10/25 05:15:23;;;;;;;2.45;2.25;;;;;;;12.83;97.01;99735.84;5114825;28;20066;-66
2022/10/25 05:17:56;;;;;;;1.50;1.40;;;;;;;12.77;96.75;99736.72;5114445;28;20056;-67
2022/10/25 05:20:54;;;;;;;6.85;1.75;;;;;;;12.72;97.19;99752.97;5114686;28;20051;-67
2022/10/25 05:23:24;;;;;;;3.50;1.65;;;;;;;12.67;96.85;99744.50;5114258;28;20047;-66
2022/10/25 05:26:01;;;;;;;3.38;2.55;;;;;;;12.58;96.87;99750.53;5114198;28;20035;-66
2022/10/25 05:28:32;;;;;;;5.10;2.72;;;;;;;12.56;96.94;99741.19;5114298;28;20057;-66
2022/10/25 05:31:09;;;;;;;5.10;2.47;;;;;;;12.56;97.06;99742.03;5114450;28;20047;-67
2022/10/25 05:34:09;;;;;;;4.18;3.33;;;;;;;12.58;97.07;99754.81;5113469;28;20051;-66
2022/10/25 05:37:03;;;;;;;2.53;1.90;;;;;;;12.58;96.77;99744.56;5114442;28;20083;-67
2022/10/25 05:39:32;;;;;;;;;;;;;;;12.59;96.82;99741.16;5113575;28;20043;-66
2022/10/25 05:42:05;;;;;;;2.00;1.58;;;;;;;12.64;97.26;99747.09;5114078;28;19993;-66
2022/10/25 05:44:35;;;;;;;3.35;1.90;;;;;;;12.71;97.28;99751.31;5113985;28;20089;-67
2022/10/25 05:47:06;;;;;;;1.52;1.35;;;;;;;12.74;97.29;99758.97;5113988;28;20040;-66
2022/10/25 05:50:01;;;;;;;1.42;1.33;;;;;;;12.77;97.07;99766.59;5114016;28;20503;-66
2022/10/25 05:52:31;;;;;;;4.25;2.60;;;;;;;12.79;97.26;99767.44;5113979;28;20063;-66
2022/10/25 05:55:00;;;;;;;2.35;1.17;;;;;;;12.82;97.14;99774.25;5113867;28;20533;-66
2022/10/25 05:57:54;;;;;;;5.88;2.20;;;;;;;12.80;97.41;99774.28;5113809;28;20058;-67
2022/10/25 06:00:24;;;;;;;13.80;2.95;;;;;;;12.81;97.11;99778.53;5113907;28;20081;-66
2022/10/25 06:02:54;;;;;;;11.50;5.28;;;;;;;12.83;97.36;99779.38;5114146;28;20032;-67
2022/10/25 06:05:48;;;;;;;4.47;4.03;;;;;;;12.82;97.54;99794.75;5116872;28;20043;-67
2022/10/25 06:08:42;;;;;;;3.70;2.58;;;;;;;12.83;97.38;99802.44;5118001;28;20043;-67
2022/10/25 06:11:37;;;;;;;3.00;2.67;;;;;;;12.78;97.38;99794.78;5118298;28;20048;-67
2022/10/25 06:14:11;;;;;;;4.05;2.58;;;;;;;12.74;97.17;99787.16;5118256;28;20117;-67
2022/10/25 06:17:06;;;;;;;2.70;2.17;;;;;;;12.75;97.45;99788.81;5117838;28;20501;-67
2022/10/25 06:20:02;;;;;;;9.60;2.17;;;;;;;12.71;97.29;99792.28;5117797;28;20123;-67
2022/10/25 06:22:56;;;;;;;4.45;4.00;;;;;;;12.76;97.22;99811.03;5117737;27;20032;-67
2022/10/25 06:25:25;;;;;;;4.85;2.70;;;;;;;12.73;97.31;99813.59;5117641;28;20047;-66
2022/10/25 06:27:54;;;;;;;1.95;1.75;;;;;;;12.74;97.43;99805.06;5118058;28;20048;-66
2022/10/25 06:30:23;;;;;;;2.35;2.15;;;;;;;12.77;97.90;99811.00;5117950;28;20513;-66
2022/10/25 06:32:55;;;;;;;2.25;1.52;;;;;;;12.77;97.73;99810.16;5117891;28;20065;-67
2022/10/25 06:35:28;;;;;;;9.45;1.92;;;;;;;12.84;97.89;99824.59;5118208;28;20052;-67
2022/10/25 06:38:22;;;;;;;1.83;1.65;;;;;;;12.87;97.58;99824.59;5117686;28;20537;-66
2022/10/25 06:41:18;;;;;;;5.15;2.33;;;;;;;12.90;97.77;99828.84;5117667;28;20178;-67
2022/10/25 06:44:13;;;;;;;1.13;1.02;;;;;;;13.04;98.23;99822.75;5117639;28;20042;-67
2022/10/25 06:47:09;;;;;;;1.75;1.60;;;;;;;13.10;97.94;99802.22;5117286;28;20052;-67
2022/10/25 06:50:10;;;;;;;1.65;1.35;;;;;;;13.12;98.06;99810.75;5117463;28;20039;-67
2022/10/25 06:52:40;;;;;;;;;;;;;;;13.13;98.06;99807.31;5118509;28;20044;-66
2022/10/25 06:55:35;;;;;;;2.10;1.70;;;;;;;13.18;97.66;99791.91;5117365;28;20434;-67
2022/10/25 06:58:03;;;;;;;2.05;1.30;;;;;;;13.18;97.67;99797.88;5098713;28;20094;-66
2022/10/25 07:03:33;;;;;;;3.30;1.70;;;;;;;13.21;98.22;99792.72;5096463;28;20036;-66
2022/10/25 07:06:34;;;;;;;6.43;2.92;;;;;;;13.22;98.15;99808.97;5101432;28;20062;-67
2022/10/25 07:09:30;;;;;;;3.88;1.33;;;;;;;13.20;97.67;99802.97;5114647;28;20500;-67
2022/10/25 07:12:24;;;;;;;3.63;1.75;;;;;;;13.18;98.11;99800.44;5116726;28;20075;-66
2022/10/25 07:14:56;;;;;;;1.65;1.55;;;;;;;13.09;97.98;99800.53;5116516;28;20044;-66
2022/10/25 07:17:25;;;;;;;3.22;2.55;;;;;;;13.16;97.95;99825.25;5116412;28;20500;-66
2022/10/25 07:19:59;;;;;;;5.78;4.07;;;;;;;13.17;98.19;99820.97;5116609;28;20051;-67
2022/10/25 07:22:27;;;;;;;2.33;1.95;;;;;;;13.21;97.58;99820.91;5116958;28;20043;-66
2022/10/25 07:25:22;;;;;;;6.88;4.00;;;;;;;13.20;98.18;99834.59;5116594;28;20492;-66
2022/10/25 07:28:00;;;;;;;2.97;2.30;;;;;;;13.20;98.18;99843.97;5116780;28;20067;-66
2022/10/25 07:30:54;;;;;;;2.53;2.33;;;;;;;13.18;97.95;99846.56;5116421;28;20043;-66
2022/10/25 07:33:25;;;;;;;6.57;3.42;;;;;;;13.18;98.19;99844.00;5116366;28;20064;-66
2022/10/25 07:35:56;;;;;;;3.22;2.70;;;;;;;13.25;97.90;99848.22;5116412;28;20050;-66
2022/10/25 07:38:44;;;;;;;3.10;2.45;;;;;;;13.36;98.34;99845.56;5103685;28;20044;-66
2022/10/25 07:41:19;;;;;;;2.38;2.10;;;;;;;13.36;97.53;99845.56;5099732;28;20109;-66
2022/10/25 07:44:13;;;;;;;2.70;1.90;;;;;;;13.32;97.67;99854.97;5116214;28;20039;-66
2022/10/25 07:47:11;;;;;;;0.85;0.85;;;;;;;13.34;97.89;99850.69;5114163;28;21463;-67
2022/10/25 07:50:05;;;;;;;1.92;1.83;;;;;;;13.40;97.63;99853.22;5095492;28;20077;-66
2022/10/25 07:52:58;;;;;;;3.03;2.72;;;;;;;13.59;98.36;99861.56;5114961;28;20040;-66
2022/10/25 07:55:33;;;;;;;2.25;2.05;;;;;;;13.68;98.08;99852.91;5103916;27;20113;-66
2022/10/25 07:58:05;;;;;;;1.30;1.17;;;;;;;13.84;98.38;99859.59;5095351;28;20400;-66
2022/10/25 08:01:02;;;;;;;3.33;2.40;;;;;;;14.03;98.01;99856.81;5097208;28;20036;-66
2022/10/25 08:03:31;;;;;;;4.97;1.88;;;;;;;14.23;98.20;99842.88;5106848;28;20135;-66
2022/10/25 08:06:01;;;;;;;1.13;1.02;;;;;;;14.43;97.90;99846.91;5109662;28;20062;-66
2022/10/25 08:08:30;;;;;;;;;;;;;;;14.67;98.00;99855.97;5116064;28;20062;-66
2022/10/25 08:10:58;;;;;;;1.67;1.55;;;;;;;14.83;97.48;99841.22;5115732;28;19923;-66
2022/10/25 08:13:29;;;;;;;2.33;2.10;;;;;;;14.91;97.49;99842.78;5108711;27;20035;-66
2022/10/25 08:15:57;;;;;;;2.38;1.77;;;;;;;15.03;97.54;99841.72;5095617;28;20131;-66
2022/10/25 08:18:26;;;;;;;1.95;1.58;;;;;;;15.15;97.47;99832.09;5095146;28;20067;-66
2022/10/25 08:20:55;;;;;;;1.43;1.33;;;;;;;15.31;96.96;99845.53;5095033;28;20579;-66
2022/10/25 08:23:31;;;;;;;1.38;1.20;;;;;;;15.45;96.93;99848.75;5095080;28;20579;-66
2022/10/25 08:25:59;;;;;;;1.85;1.25;;;;;;;15.57;96.47;99847.69;5111661;28;20112;-66
2022/10/25 08:28:30;;;;;;;1.77;1.63;;;;;;;15.70;96.18;99844.84;5114448;28;20551;-67
2022/10/25 08:30:59;;;;;;;2.90;1.50;;;;;;;15.74;95.69;99841.34;5111394;28;20063;-69
2022/10/25 08:33:29;;;;;;;1.80;1.63;;;;;;;15.91;95.17;99838.44;5099530;28;20044;-69
2022/10/25 08:36:00;;;;;;;1.30;1.20;;;;;;;15.94;94.34;99844.38;5094734;28;20044;-67
2022/10/25 08:38:29;;;;;;;5.75;2.95;;;;;;;16.05;93.57;99847.56;5095064;28;20067;-67
2022/10/25 08:41:05;;;;;;;2.70;2.20;;;;;;;16.17;92.90;99846.50;5094761;28;20046;-67
2022/10/25 08:43:54;;;;;;;0.60;0.60;;;;;;;16.25;92.07;99846.31;5094994;28;20101;-68
2022/10/25 08:46:27;;;;;;;1.17;1.07;;;;;;;16.34;90.99;99853.88;5094858;28;20048;-68
2022/10/25 08:49:09;;;;;;;1.63;1.25;;;;;;;16.46;90.12;99848.47;5094558;28;20300;-67
2022/10/25 08:51:40;;;;;;;1.40;1.30;;;;;;;16.47;89.29;99855.28;5096341;28;20072;-68
2022/10/25 08:54:21;;;;;;;4.82;2.70;;;;;;;16.79;89.27;99842.56;5093656;28;20078;-68
2022/10/25 08:56:53;;;;;;;1.95;1.17;;;;;;;16.88;88.20;99842.34;5093965;28;20475;-68
2022/10/25 08:59:47;;;;;;;1.33;1.23;;;;;;;16.82;87.38;99847.63;5093926;28;20524;-68
2022/10/25 09:02:33;;;;;;;1.98;1.50;;;;;;;16.95;87.05;99845.63;5094372;28;20062;-67
2022/10/25 09:05:02;;;;;;;3.33;1.20;;;;;;;16.95;86.27;99854.22;5099370;28;20045;-67
2022/10/25 09:07:50;;;;;;;2.03;1.13;;;;;;;16.85;85.39;99847.56;5094731;28;20619;-67
2022/10/25 09:10:35;;;;;;;1.55;1.27;;;;;;;16.88;84.66;99841.50;5094167;28;20071;-68
2022/10/25 09:13:42;;;;;;;1.25;0.93;;;;;;;17.01;84.54;99843.72;5094371;28;20032;-68
2022/10/25 09:16:48;;;;;;;1.15;0.88;;;;;;;17.12;83.75;99844.34;5094030;28;20072;-67
2022/10/25 09:19:32;;;;;;;0.80;0.80;;;;;;;17.36;84.00;99841.16;5094426;28;20059;-68
2022/10/25 09:22:29;;;;;;;0.98;0.90;;;;;;;17.48;83.47;99839.13;5093980;28;20040;-68
2022/10/25 09:25:12;;;;;;;0.70;0.68;;;;;;;17.58;82.95;99851.78;5094333;28;20493;-69
2022/10/25 09:27:52;;;;;;;1.77;1.17;;;;;;;17.71;82.26;99858.31;5104856;28;20086;-70
2022/10/25 09:30:21;;;;;;;1.23;1.13;;;;;;;17.82;81.69;99850.28;5093904;28;20056;-68
2022/10/25 09:32:55;;;;;;;1.25;1.10;;;;;;;17.86;81.33;99857.06;5094202;28;20032;-69
2022/10/25 09:35:28;;;;;;;1.50;1.20;;;;;;;17.75;80.14;99853.94;5105986;28;20474;-68
2022/10/25 09:38:01;;;;;;;1.08;1.02;;;;;;;17.65;79.87;99862.78;5113506;28;20097;-68
2022/10/25 09:41:00;;;;;;;;;;;;;;;17.66;79.69;99861.91;5114465;28;20047;-68
2022/10/25 09:43:59;;;;;;;2.25;1.33;;;;;;;17.79;79.70;99858.09;5114039;28;19920;-70
2022/10/25 09:46:37;;;;;;;0.60;0.60;;;;;;;17.88;79.56;99865.59;5114040;28;20040;-68
2022/10/25 09:49:37;;;;;;;2.75;1.58;;;;;;;17.91;79.11;99866.38;5097975;28;20048;-69
2022/10/25 09:52:19;;;;;;;1.63;1.52;;;;;;;18.05;79.15;99865.97;5093695;28;20469;-68
2022/10/25 09:55:31;;;;;;;5.60;1.75;;;;;;;18.08;78.95;99865.91;5104595;28;20039;-69
2022/10/25 09:58:29;;;;;;;1.13;1.02;;;;;;;18.12;78.89;99864.91;5113725;28;20051;-68
2022/10/25 10:01:04;;;;;;;1.38;1.27;;;;;;;18.24;78.97;99869.72;5114147;28;20486;-69
2022/10/25 10:03:36;;;;;;;0.70;0.70;;;;;;;18.18;78.71;99879.41;5107570;28;20101;-69
2022/10/25 10:06:15;;;;;;;1.55;1.23;;;;;;;18.23;78.75;99869.78;5110900;28;20481;-69
2022/10/25 10:08:51;;;;;;;3.10;1.52;;;;;;;18.33;78.62;99878.97;5093678;28;20040;-69
2022/10/25 10:11:23;;;;;;;2.47;1.80;;;;;;;18.33;78.66;99874.63;5093769;28;20048;-69
2022/10/25 10:14:26;;;;;;;1.63;1.17;;;;;;;18.42;78.26;99866.63;5093637;28;20040;-68
2022/10/25 10:17:21;;;;;;;2.40;1.80;;;;;;;18.51;77.92;99858.63;5093366;28;20054;-69
2022/10/25 10:20:16;;;;;;;0.55;0.52;;;;;;;18.49;77.25;99850.06;5093309;28;20048;-69
2022/10/25 10:22:52;;;;;;;0.98;0.93;;;;;;;18.45;77.51;99858.75;5093683;28;20052;-68
2022/10/25 10:25:25;;;;;;;1.58;1.48;;;;;;;18.54;77.42;99868.88;5093289;28;20101;-69
2022/10/25 10:27:57;;;;;;;0.73;0.73;;;;;;;18.68;77.37;99866.72;5093238;28;20044;-69
2022/10/25 10:30:29;;;;;;;1.63;0.95;;;;;;;18.68;77.16;99869.31;5093598;28;20127;-69
2022/10/25 10:33:01;;;;;;;0.57;0.57;;;;;;;18.80;77.02;99873.25;5093546;28;20466;-69
2022/10/25 10:35:33;;;;;;;1.83;1.30;;;;;;;18.91;76.85;99872.94;5093557;28;20052;-69
2022/10/25 10:38:14;;;;;;;1.10;1.05;;;;;;;19.03;76.88;99872.50;5092793;28;20059;-69
2022/10/25 10:40:43;;;;;;;5.25;1.75;;;;;;;19.01;76.61;99866.53;5093501;28;20040;-69
2022/10/25 10:43:29;;;;;;;0.50;0.50;;;;;;;19.00;75.76;99867.47;5093635;28;20498;-70
2022/10/25 10:46:04;;;;;;;0.70;0.68;;;;;;;19.05;74.69;99863.00;5093303;28;20109;-70
2022/10/25 10:48:35;;;;;;;1.23;1.13;;;;;;;19.22;73.71;99858.94;5093194;28;20045;-70
2022/10/25 10:51:13;;;;;;;0.55;0.55;;;;;;;19.36;72.27;99855.94;5094788;28;20513;-69
2022/10/25 10:54:21;;;;;;;0.52;0.52;;;;;;;19.38;71.77;99864.50;5097108;28;20450;-70
2022/10/25 10:56:59;;;;;;;0.75;0.70;;;;;;;19.41;71.12;99859.22;5097120;28;20131;-70
2022/10/25 10:59:37;;;;;;;0.50;0.50;;;;;;;19.42;71.12;99863.47;5096515;28;20070;-70
2022/10/25 11:02:22;;;;;;;0.50;0.50;;;;;;;19.61;71.44;99861.97;5096959;28;20043;-70
2022/10/25 11:04:53;;;;;;;0.82;0.63;;;;;;;19.75;71.00;99862.31;5096946;28;20048;-70
2022/10/25 11:07:29;;;;;;;0.55;0.55;;;;;;;19.92;70.58;99859.97;5096455;28;20092;-70
2022/10/25 11:10:19;;;;;;;0.50;0.50;;;;;;;20.03;70.04;99863.03;5096705;28;20043;-70
2022/10/25 11:13:06;;;;;;;0.80;0.70;;;;;;;20.22;69.24;99858.06;5096426;28;20040;-70
2022/10/25 11:15:49;;;;;;;0.50;0.50;;;;;;;20.23;68.38;99851.97;5096505;28;20436;-70
2022/10/25 11:18:27;;;;;;;1.08;0.98;;;;;;;20.26;67.63;99848.41;5096273;28;20066;-70
2022/10/25 11:21:05;;;;;;;2.20;1.05;;;;;;;20.36;66.63;99844.56;5096821;28;20478;-70
2022/10/25 11:23:45;;;;;;;0.60;0.60;;;;;;;20.50;66.08;99843.16;5095734;28;20044;-70
2022/10/25 11:26:23;;;;;;;0.45;0.45;;;;;;;20.72;65.28;99837.97;5096483;28;20048;-70
2022/10/25 11:29:02;;;;;;;0.40;0.40;;;;;;;20.79;63.74;99825.59;5096082;28;20044;-70
2022/10/25 11:31:46;;;;;;;0.50;0.50;;;;;;;20.79;63.54;99836.81;5096487;28;20126;-70
2022/10/25 11:34:24;;;;;;;0.30;0.30;;;;;;;20.99;63.72;99834.28;5096258;28;20513;-70
2022/10/25 11:37:06;;;;;;;0.35;0.35;;;;;;;21.01;62.60;99824.69;5096036;28;20083;-70
2022/10/25 11:39:51;;;;;;;0.40;0.40;;;;;;;21.29;62.69;99830.44;5096201;28;20055;-70
2022/10/25 11:42:56;;;;;;;0.45;0.45;;;;;;;21.40;62.57;99835.19;5096443;28;20490;-70
2022/10/25 11:45:50;;;;;;;0.40;0.40;;;;;;;21.53;61.37;99832.91;5095563;28;20044;-70
2022/10/25 11:48:52;;;;;;;0.40;0.40;;;;;;;21.59;60.99;99830.06;5092845;28;20090;-70
2022/10/25 11:51:30;;;;;;;0.65;0.60;;;;;;;21.60;61.18;99829.13;5095623;28;20040;-70
2022/10/25 11:54:12;;;;;;;0.45;0.45;;;;;;;21.57;61.25;99821.50;5095984;28;20411;-69
2022/10/25 11:56:54;;;;;;;0.50;0.50;;;;;;;21.51;60.49;99826.94;5095598;28;20048;-69
2022/10/25 11:59:34;;;;;;;0.60;0.60;;;;;;;21.40;60.62;99816.16;5095464;28;20438;-70
2022/10/25 12:02:21;;;;;;;0.50;0.50;;;;;;;21.40;61.09;99818.78;5094281;28;20040;-69
2022/10/25 12:05:13;;;;;;;1.05;0.60;;;;;;;21.51;60.98;99832.13;5095697;28;20472;-69
2022/10/25 12:07:50;;;;;;;0.73;0.73;;;;;;;21.46;60.92;99829.72;5095433;28;20126;-69
2022/10/25 12:10:27;;;;;;;0.55;0.55;;;;;;;21.43;60.66;99829.03;5095301;28;20127;-70
2022/10/25 12:13:01;;;;;;;0.50;0.50;;;;;;;21.41;60.67;99830.81;5097604;28;20375;-69
2022/10/25 12:15:38;;;;;;;14.32;0.82;;;;;;;21.48;60.98;99833.09;5107625;28;20123;-69
2022/10/25 12:18:14;;;;;;;1.13;0.65;;;;;;;21.43;61.04;99829.03;5115538;28;20082;-69
2022/10/25 12:20:46;;;;;;;0.90;0.90;;;;;;;21.33;60.88;99834.59;5102592;28;20066;-71
2022/10/25 12:23:18;;;;;;;0.30;0.30;;;;;;;21.30;60.62;99829.53;5094111;28;20125;-70
2022/10/25 12:25:50;;;;;;;0.30;0.30;;;;;;;21.36;59.83;99808.50;5095061;28;20097;-70
2022/10/25 12:28:28;;;;;;;0.43;0.43;;;;;;;21.71;59.44;99826.94;5095001;28;20139;-70
2022/10/25 12:31:02;;;;;;;0.40;0.40;;;;;;;21.82;58.89;99822.94;5095209;28;20074;-70